Airfield :
LOGIN :

Register | Disclaimer

   EN    FR    IT 

 










Legend :    VFR   Marginal VFR   IFR   Intensive IFR   Very Intensive IFR
Visi :
Ceiling :
>= 8 km
>= 3000ft
5 to 8 km
1000 to 3000 ft
1500m to 5 km
500 to 1000 ft
800 to 1500m
200 to 500 ft
< 800m
< 200 ft
Symbols :   Thunderstorms  Fog  Heavy snow  Heavy precipitations  Wind > 20 kt
SIGMETs :     Misc.  Thunderstorms  Icing  Turbulence  Mountain Waves  Volcanic Ashes







- Airport Elevation : 184 ft
- IATA code : BRU


EBBR - Bruxelles

CURRENT METAR :
  • 162150Z 24006KT CAVOK 01/M01 Q1019 NOSIG

EXPIRED METARs :
  • 162120Z 24006KT 9999 FEW026 01/M01 Q1019 NOSIG
  • 162050Z 24007KT 9999 FEW026 02/M01 Q1019 NOSIG
  • 162020Z 25008KT 9999 FEW026 02/M00 Q1018 NOSIG
  • 161950Z 26010KT 9999 FEW026 02/M00 Q1018 NOSIG
  • 161920Z 26010KT 9999 FEW026 02/00 Q1018 NOSIG

TAF TAF EBBR
Valid from the 16 at 18:00 until the 18 at 00:00 UTC


161700Z 1618/1724 28009KT 9999 FEW015TCU SCT030
PROB40
TEMPO 1700/1708 2500 SHSNRA BKN005
BECMG 1717/1719 20012KT
TEMPO 1722/1724 4000 -RADZ BKN008
No reported NOTAMs for that airfield.



MET'MAP, your aeronautical weather chart ! - Copyright ORBIFLY December 2007 - Disclaimer

ORBIFLY MET'MAP TEAM :

Programming & Development : Alexandra Zaïnal
Concept & Development : Baudouin d'Aumeries
Co-Development & Prog : Marc-Olivier Méhu
Technical & hardware support : Manuel Goepfert

Contact : metmap@orbifly.com




SOURCES & CREDITS :

   NOAA